Pagina principală
METAR-TAF:

METAR-TAF

Aeroporturi :

Fort Worth, Texas, Statele Unite ale Americii

Latitudine: 32-49-31N, longitudine: 097-21-51W, elevație: 216 m

Observații meteo curente

Raportul a fost făcut în urmă cu 14 de minute, la 05:53 UTC
Vânt 6 kt de la Est/Sud-est
Temperatură 24°C
Umiditate 78%
Presiune 1012 hPa
Vizibilitate: 16.1 km
Cer senin

METAR: KFTW 190553Z 11006KT 10SM CLR 24/20 A2989 RMK AO2 SLP113 T02440200 10306 20244 403220183 50010

Ora: 01:07 (06:07 UTC)

Prognoză

Raportul a fost făcut în urmă cu 36 de minute, la 05:31 UTC
Prognoză valabilă de la 19 ora 06 UTC la 20 ora 06 UTC
Vânt 7 kt de la Sud-est
Vizibilitate: 10 km
Cer senin
De la 19 ora 1700 UTC
Vânt 16 kt de la Sud/Sud-est
Vizibilitate: 10 km
Nori puțini la o înălțime de 4500 picior

TAF: KFTW 190531Z 1906/2006 14007KT P6SM SKC FM191700 16016KT P6SM FEW045

Observații și prognoze meteo pentru peste 4.000 de aeroporturi (rapoarte METAR și TAF).

Stațiile disponibile sunt reprezentate pe hartă prin puncte galbene și roșii.

Țineți indicatorul mouse-ului pe punctul dorit pentru a vedea denumirea stației.

Apoi, faceți clic pentru a vedea observațiile și prognozele meteorologice.

Pentru a schimba harta: Pentru mărire, faceți clic pe butoanele verzi cu cruce neagră; pentru micșorare, pe butonul verde cu o liniuță; pentru hărți învecinate, pe săgețile verzi.


METAR-TAF: